createdAt,value
2018-07-25T00:00:18.547Z,58.65
2018-07-25T00:02:47.167Z,59.32
2018-07-25T00:05:15.805Z,59.96
2018-07-25T00:07:44.429Z,59.22
2018-07-25T00:10:12.960Z,59.39
2018-07-25T00:12:41.635Z,59.04
2018-07-25T00:15:10.240Z,58.72
2018-07-25T00:17:38.785Z,58.92
2018-07-25T00:20:07.407Z,58.63
2018-07-25T00:22:35.972Z,58.90
2018-07-25T00:25:04.596Z,58.87
2018-07-25T00:27:33.182Z,58.53
2018-07-25T00:30:01.740Z,59.00
2018-07-25T00:32:30.388Z,58.72
2018-07-25T00:34:58.993Z,59.12
2018-07-25T00:37:27.590Z,58.78
2018-07-25T00:39:56.207Z,58.96
2018-07-25T00:42:24.827Z,59.21
2018-07-25T00:44:53.480Z,58.36
2018-07-25T00:47:22.181Z,58.96
2018-07-25T00:49:50.719Z,59.00
2018-07-25T00:52:19.333Z,59.11
2018-07-25T00:54:47.959Z,58.67
2018-07-25T00:57:16.533Z,58.84
2018-07-25T00:59:45.978Z,59.00
2018-07-25T01:02:14.613Z,59.49
2018-07-25T01:04:43.355Z,59.45
2018-07-25T01:07:11.956Z,59.59
2018-07-25T01:09:40.791Z,58.94
2018-07-25T01:12:09.456Z,59.50
2018-07-25T01:14:38.117Z,59.30
2018-07-25T01:17:07.661Z,59.25
2018-07-25T01:19:36.347Z,59.72
2018-07-25T01:22:04.977Z,59.41
2018-07-25T01:24:33.571Z,59.43
2018-07-25T01:27:02.278Z,59.43
2018-07-25T01:29:30.922Z,59.45
2018-07-25T01:31:59.436Z,59.39
2018-07-25T01:34:28.032Z,59.45
2018-07-25T01:36:56.724Z,59.43
2018-07-25T01:39:25.295Z,59.46
2018-07-25T01:41:53.936Z,59.15
2018-07-25T01:44:22.547Z,59.83
2018-07-25T01:46:51.136Z,59.29
2018-07-25T01:49:19.827Z,59.14
2018-07-25T01:51:48.491Z,59.48
2018-07-25T01:54:17.066Z,59.50
2018-07-25T01:56:45.607Z,59.95
2018-07-25T01:59:14.128Z,59.37
2018-07-25T02:01:42.805Z,59.98
2018-07-25T02:04:11.401Z,60.01
2018-07-25T02:06:39.973Z,59.80
2018-07-25T02:09:10.540Z,59.32
2018-07-25T02:11:39.048Z,59.32
2018-07-25T02:14:07.573Z,60.09
2018-07-25T02:16:36.168Z,58.73
2018-07-25T02:19:04.868Z,59.28
2018-07-25T02:21:33.449Z,60.02
2018-07-25T02:24:02.016Z,60.03
2018-07-25T02:26:30.608Z,59.92
2018-07-25T02:28:59.252Z,59.73
2018-07-25T02:31:27.901Z,60.32
2018-07-25T02:34:01.674Z,60.24
2018-07-25T02:36:30.239Z,59.96
2018-07-25T02:38:58.968Z,59.97
2018-07-25T02:41:27.633Z,59.86
2018-07-25T02:43:56.236Z,59.56
2018-07-25T02:46:24.928Z,60.13
2018-07-25T02:48:53.529Z,59.21
2018-07-25T02:51:22.164Z,59.70
2018-07-25T02:53:50.718Z,60.19
2018-07-25T02:56:19.341Z,60.28
2018-07-25T02:58:47.873Z,59.69
2018-07-25T03:01:16.467Z,59.28
2018-07-25T03:03:51.709Z,59.55
2018-07-25T03:06:20.285Z,60.09
2018-07-25T03:08:48.796Z,59.84
2018-07-25T03:11:17.497Z,59.89
2018-07-25T03:13:46.109Z,59.66
2018-07-25T03:16:14.708Z,59.40
2018-07-25T03:18:43.237Z,59.91
2018-07-25T03:21:11.840Z,59.64
2018-07-25T03:23:40.463Z,59.78
2018-07-25T03:26:09.064Z,60.06
2018-07-25T03:28:37.681Z,59.90
2018-07-25T03:31:06.292Z,59.33
2018-07-25T03:33:34.823Z,59.54
2018-07-25T03:36:03.380Z,59.33
2018-07-25T03:38:32.005Z,59.56
2018-07-25T03:41:00.615Z,60.10
2018-07-25T03:43:29.168Z,59.12
2018-07-25T03:45:57.846Z,60.09
2018-07-25T03:48:26.404Z,60.20
2018-07-25T03:50:55.009Z,60.31
2018-07-25T03:53:23.618Z,59.88
2018-07-25T03:55:52.265Z,59.64
2018-07-25T03:58:20.796Z,60.05
2018-07-25T04:00:49.449Z,60.00
2018-07-25T04:03:18.113Z,59.50
2018-07-25T04:05:46.699Z,60.23
2018-07-25T04:08:15.465Z,60.40
2018-07-25T04:10:47.588Z,59.75
2018-07-25T04:13:17.060Z,59.73
2018-07-25T04:15:45.725Z,59.84
2018-07-25T04:18:14.332Z,60.52
2018-07-25T04:20:42.988Z,59.66
2018-07-25T04:23:11.649Z,60.87
2018-07-25T04:25:40.255Z,63.49
2018-07-25T04:28:08.861Z,66.34
2018-07-25T04:30:37.431Z,69.75
2018-07-25T04:33:05.980Z,72.49
2018-07-25T04:35:34.529Z,73.47
2018-07-25T04:38:03.090Z,76.00
2018-07-25T04:40:31.655Z,76.75
2018-07-25T04:43:00.264Z,78.73
2018-07-25T04:45:28.785Z,80.81
2018-07-25T04:47:57.355Z,83.42
2018-07-25T04:50:25.905Z,83.95
2018-07-25T04:52:54.393Z,83.53
2018-07-25T04:55:22.868Z,82.97
2018-07-25T04:57:51.377Z,83.58
2018-07-25T05:00:19.877Z,84.42
2018-07-25T05:02:48.394Z,85.60
2018-07-25T05:05:16.893Z,85.33
2018-07-25T05:07:45.365Z,86.58
2018-07-25T05:10:13.855Z,87.13
2018-07-25T05:12:42.369Z,85.97
2018-07-25T05:15:11.045Z,87.15
2018-07-25T05:17:39.627Z,87.53
2018-07-25T05:20:08.312Z,86.42
2018-07-25T05:22:36.912Z,85.72
2018-07-25T05:25:05.517Z,85.62
2018-07-25T05:27:34.102Z,85.21
2018-07-25T05:30:02.772Z,84.49
2018-07-25T05:32:31.353Z,83.87
2018-07-25T05:34:59.988Z,83.67
2018-07-25T05:37:28.571Z,83.82
2018-07-25T05:39:57.221Z,83.40
2018-07-25T05:42:25.825Z,82.45
2018-07-25T05:44:54.351Z,82.26
2018-07-25T05:47:22.962Z,82.18
2018-07-25T05:49:51.824Z,81.21
2018-07-25T05:52:20.390Z,79.56
2018-07-25T05:54:48.982Z,79.41
2018-07-25T05:57:17.624Z,79.58
2018-07-25T05:59:46.188Z,77.50
2018-07-25T06:02:14.792Z,77.61
2018-07-25T06:04:43.446Z,76.66
2018-07-25T06:07:12.180Z,75.36
2018-07-25T06:09:40.702Z,74.40
2018-07-25T06:12:09.522Z,73.70
2018-07-25T06:14:38.163Z,74.19
2018-07-25T06:17:07.033Z,74.59
2018-07-25T06:19:36.212Z,75.35
2018-07-25T06:22:04.869Z,74.66
2018-07-25T06:24:33.668Z,75.08
2018-07-25T06:27:02.496Z,74.19
2018-07-25T06:29:31.225Z,73.59
2018-07-25T06:31:59.883Z,74.01
2018-07-25T06:34:28.710Z,73.37
2018-07-25T06:36:57.649Z,74.04
2018-07-25T06:39:26.228Z,73.50
2018-07-25T06:41:54.908Z,73.40
2018-07-25T06:44:24.536Z,72.77
2018-07-25T06:46:53.389Z,73.03
2018-07-25T06:49:22.024Z,72.42
2018-07-25T06:51:50.696Z,72.20
2018-07-25T06:54:19.469Z,72.71
2018-07-25T06:56:48.096Z,71.91
2018-07-25T06:59:16.946Z,71.65
2018-07-25T07:01:45.825Z,70.33
2018-07-25T07:04:14.614Z,69.75
2018-07-25T07:06:43.389Z,69.33
2018-07-25T07:09:12.131Z,68.83
2018-07-25T07:11:40.804Z,69.34
2018-07-25T07:14:09.432Z,68.54
2018-07-25T07:16:38.161Z,68.38
2018-07-25T07:19:06.864Z,68.59
2018-07-25T07:21:35.448Z,67.63
2018-07-25T07:24:04.107Z,67.54
2018-07-25T07:26:32.906Z,68.45
2018-07-25T07:29:01.509Z,67.53
2018-07-25T07:31:30.513Z,68.58
2018-07-25T07:33:59.399Z,68.24
2018-07-25T07:36:28.172Z,68.06
2018-07-25T07:38:56.829Z,67.48
2018-07-25T07:41:25.452Z,66.98
2018-07-25T07:43:53.985Z,67.58
2018-07-25T07:46:22.600Z,67.14
2018-07-25T07:48:51.208Z,67.16
2018-07-25T07:51:19.934Z,67.00
2018-07-25T07:53:48.625Z,65.84
2018-07-25T07:56:17.329Z,66.68
2018-07-25T07:58:45.977Z,65.19
2018-07-25T08:01:14.560Z,65.58
2018-07-25T08:03:43.193Z,64.99
2018-07-25T08:06:11.983Z,64.55
2018-07-25T08:08:40.660Z,64.82
2018-07-25T08:11:12.506Z,65.55
2018-07-25T08:13:41.206Z,66.00
2018-07-25T08:16:09.813Z,64.82
2018-07-25T08:18:38.532Z,64.81
2018-07-25T08:21:07.228Z,64.60
2018-07-25T08:23:35.771Z,64.51
2018-07-25T08:26:04.440Z,64.71
2018-07-25T08:28:33.120Z,64.66
2018-07-25T08:31:01.697Z,63.67
2018-07-25T08:33:30.330Z,63.88
2018-07-25T08:35:58.986Z,63.34
2018-07-25T08:38:38.181Z,64.03
2018-07-25T08:41:07.525Z,64.29
2018-07-25T08:43:37.684Z,63.52
2018-07-25T08:46:07.561Z,63.97
2018-07-25T08:48:36.533Z,63.90
2018-07-25T08:51:05.257Z,64.01
2018-07-25T08:53:34.453Z,63.90
2018-07-25T08:56:03.079Z,63.25
2018-07-25T08:58:31.835Z,63.62
2018-07-25T09:01:01.174Z,64.03
2018-07-25T09:03:29.776Z,64.28
2018-07-25T09:05:58.456Z,63.71
2018-07-25T09:08:27.240Z,64.08
2018-07-25T09:10:56.031Z,64.46
2018-07-25T09:13:24.647Z,64.56
2018-07-25T09:15:53.672Z,64.18
2018-07-25T09:18:22.209Z,64.07
2018-07-25T09:20:50.708Z,64.17
2018-07-25T09:23:19.176Z,64.66
2018-07-25T09:25:47.848Z,64.14
2018-07-25T09:28:16.441Z,64.27
2018-07-25T09:30:44.933Z,64.38
2018-07-25T09:33:13.437Z,64.05
2018-07-25T09:35:41.967Z,64.32
2018-07-25T09:38:10.456Z,64.54
2018-07-25T09:40:38.923Z,64.60
2018-07-25T09:43:07.472Z,64.17
2018-07-25T09:45:35.956Z,63.96
2018-07-25T09:48:04.428Z,63.48
2018-07-25T09:50:33.045Z,63.99
2018-07-25T09:53:01.619Z,63.94
2018-07-25T09:55:30.009Z,63.74
2018-07-25T09:57:58.516Z,64.30
2018-07-25T10:00:32.355Z,63.71
2018-07-25T10:03:01.616Z,63.71
2018-07-25T10:05:30.113Z,63.56
2018-07-25T10:07:58.581Z,63.41
2018-07-25T10:10:27.060Z,63.67
2018-07-25T10:12:55.643Z,63.36
2018-07-25T10:15:24.119Z,63.93
2018-07-25T10:17:52.889Z,63.68
2018-07-25T10:20:21.496Z,63.31
2018-07-25T10:22:50.037Z,63.57
2018-07-25T10:25:18.596Z,63.16
2018-07-25T10:27:47.141Z,62.69
2018-07-25T10:30:15.739Z,62.11
2018-07-25T10:32:44.265Z,62.44
2018-07-25T10:35:12.847Z,62.88
2018-07-25T10:37:41.417Z,62.25
2018-07-25T10:40:10.057Z,62.06
2018-07-25T10:42:38.664Z,62.17
2018-07-25T10:45:08.824Z,62.01
2018-07-25T10:47:37.335Z,61.93
2018-07-25T10:50:06.820Z,61.99
2018-07-25T10:52:35.604Z,61.88
2018-07-25T10:55:04.324Z,61.73
2018-07-25T10:57:33.356Z,61.82
2018-07-25T11:00:02.001Z,61.90
2018-07-25T11:02:30.508Z,61.69
2018-07-25T11:04:59.090Z,61.84
2018-07-25T11:07:27.689Z,61.53
2018-07-25T11:09:56.327Z,61.48
2018-07-25T11:12:25.012Z,61.64
2018-07-25T11:14:53.561Z,61.61
2018-07-25T11:17:22.153Z,61.55
2018-07-25T11:19:50.694Z,61.55
2018-07-25T11:22:19.242Z,61.84
2018-07-25T11:24:47.777Z,62.04
2018-07-25T11:27:16.681Z,61.77
2018-07-25T11:29:45.248Z,61.71
2018-07-25T11:32:13.865Z,61.63
2018-07-25T11:34:42.544Z,61.27
2018-07-25T11:37:11.324Z,61.47
2018-07-25T11:39:40.013Z,61.82
2018-07-25T11:42:08.760Z,61.40
2018-07-25T11:44:37.369Z,61.68
2018-07-25T11:47:06.220Z,61.60
2018-07-25T11:49:34.773Z,61.28
2018-07-25T11:52:03.483Z,61.48
2018-07-25T11:54:32.117Z,61.30
2018-07-25T11:57:00.696Z,61.26
2018-07-25T11:59:29.392Z,61.29
2018-07-25T12:01:58.096Z,61.39
2018-07-25T12:04:26.689Z,61.23
2018-07-25T12:06:55.337Z,61.37
2018-07-25T12:09:23.948Z,61.25
2018-07-25T12:11:52.536Z,61.49
2018-07-25T12:14:21.218Z,61.52
2018-07-25T12:16:49.919Z,61.24
2018-07-25T12:19:18.513Z,61.24
2018-07-25T12:21:47.152Z,61.59
2018-07-25T12:24:15.752Z,61.61
2018-07-25T12:26:44.317Z,61.61
2018-07-25T12:29:12.914Z,61.91
2018-07-25T12:31:41.528Z,61.53
2018-07-25T12:34:10.097Z,61.56
2018-07-25T12:36:38.689Z,61.34
2018-07-25T12:39:09.474Z,61.41
2018-07-25T12:41:38.251Z,61.43
2018-07-25T12:44:07.037Z,61.37
2018-07-25T12:46:35.754Z,61.23
2018-07-25T12:49:04.465Z,61.27
2018-07-25T12:51:32.994Z,61.23
2018-07-25T12:54:01.687Z,61.20
2018-07-25T12:56:30.095Z,61.08
2018-07-25T12:58:58.747Z,61.11
2018-07-25T13:01:27.400Z,60.93
2018-07-25T13:03:55.988Z,60.92
2018-07-25T13:06:24.564Z,61.03
2018-07-25T13:08:53.153Z,60.93
2018-07-25T13:11:21.733Z,61.46
2018-07-25T13:13:50.312Z,61.36
2018-07-25T13:16:18.904Z,61.31
2018-07-25T13:18:47.563Z,61.25
2018-07-25T13:21:16.196Z,61.51
2018-07-25T13:23:44.796Z,61.52
2018-07-25T13:26:13.353Z,61.70
2018-07-25T13:28:41.939Z,61.52
2018-07-25T13:31:10.464Z,61.72
2018-07-25T13:33:39.066Z,61.75
2018-07-25T13:36:07.716Z,61.83
2018-07-25T13:38:36.252Z,61.90
2018-07-25T13:41:04.757Z,61.99
2018-07-25T13:43:33.235Z,61.99
2018-07-25T13:46:02.505Z,62.08
2018-07-25T13:48:31.339Z,62.25
2018-07-25T13:50:59.931Z,62.30
2018-07-25T13:53:28.409Z,62.24
2018-07-25T13:55:57.112Z,62.55
2018-07-25T13:58:25.743Z,63.27
2018-07-25T14:00:54.244Z,63.66
2018-07-25T14:03:22.738Z,63.29
2018-07-25T14:05:51.256Z,62.49
2018-07-25T14:08:19.791Z,61.37
2018-07-25T14:10:48.957Z,59.64
2018-07-25T14:13:18.000Z,56.98
2018-07-25T14:15:46.855Z,54.90
2018-07-25T14:18:15.509Z,55.52
2018-07-25T14:20:44.623Z,54.91
2018-07-25T14:23:13.610Z,53.34
2018-07-25T14:25:42.314Z,53.10
2018-07-25T14:28:10.964Z,53.27
2018-07-25T14:30:39.718Z,51.69
2018-07-25T14:33:08.504Z,51.30
2018-07-25T14:35:37.384Z,51.75
2018-07-25T14:38:06.536Z,50.72
2018-07-25T14:40:35.313Z,49.10
2018-07-25T14:43:04.539Z,49.84
2018-07-25T14:45:33.418Z,49.06
2018-07-25T14:48:02.252Z,48.71
2018-07-25T14:50:31.341Z,47.41
2018-07-25T14:53:00.175Z,45.76
2018-07-25T14:55:29.089Z,45.93
2018-07-25T14:57:57.966Z,46.07
2018-07-25T15:00:26.731Z,46.46
2018-07-25T15:02:55.660Z,46.46
2018-07-25T15:05:25.444Z,46.82
2018-07-25T15:07:54.196Z,47.03
2018-07-25T15:10:23.204Z,47.24
2018-07-25T15:12:58.788Z,47.77
2018-07-25T15:15:27.907Z,47.75
2018-07-25T15:17:56.883Z,48.11
2018-07-25T15:20:26.211Z,48.05
2018-07-25T15:22:54.831Z,48.31
2018-07-25T15:25:23.694Z,49.67
2018-07-25T15:27:52.261Z,50.67
2018-07-25T15:30:20.953Z,50.76
2018-07-25T15:32:49.473Z,50.71
2018-07-25T15:35:18.000Z,50.99
2018-07-25T15:37:46.545Z,51.22
2018-07-25T15:40:15.066Z,51.67
2018-07-25T15:42:43.576Z,51.40
2018-07-25T15:45:12.091Z,51.59
2018-07-25T15:47:40.577Z,51.95
2018-07-25T15:50:09.260Z,51.94
2018-07-25T15:52:37.784Z,52.31
2018-07-25T15:55:06.285Z,52.17
2018-07-25T15:57:34.797Z,52.38
2018-07-25T16:00:03.352Z,52.32
2018-07-25T16:02:31.827Z,52.25
2018-07-25T16:05:00.352Z,52.38
2018-07-25T16:07:28.823Z,52.33
2018-07-25T16:09:57.336Z,52.35
2018-07-25T16:12:25.820Z,52.64
2018-07-25T16:14:54.308Z,52.69
2018-07-25T16:17:22.932Z,52.70
2018-07-25T16:19:51.472Z,52.50
2018-07-25T16:22:19.953Z,52.70
2018-07-25T16:24:48.465Z,52.83
2018-07-25T16:27:16.972Z,52.77
2018-07-25T16:29:45.476Z,52.70
2018-07-25T16:32:13.957Z,52.86
2018-07-25T16:34:42.655Z,53.03
2018-07-25T16:37:11.173Z,52.99
2018-07-25T16:39:39.674Z,52.98
2018-07-25T16:42:08.169Z,53.02
2018-07-25T16:44:36.801Z,53.19
2018-07-25T16:47:05.445Z,53.18
2018-07-25T16:49:33.937Z,53.28
2018-07-25T16:52:02.453Z,53.38
2018-07-25T16:54:30.954Z,53.41
2018-07-25T16:56:59.440Z,53.21
2018-07-25T16:59:27.909Z,53.58
2018-07-25T17:01:56.413Z,53.54
2018-07-25T17:04:24.926Z,53.66
2018-07-25T17:06:53.396Z,53.48
2018-07-25T17:09:21.944Z,53.61
2018-07-25T17:11:50.413Z,53.82
2018-07-25T17:14:18.890Z,53.79
2018-07-25T17:16:47.372Z,53.67
2018-07-25T17:19:15.884Z,53.91
2018-07-25T17:21:44.388Z,53.76
2018-07-25T17:24:12.905Z,53.87
2018-07-25T17:26:41.393Z,53.97
2018-07-25T17:29:09.896Z,54.06
2018-07-25T17:31:38.493Z,53.98
2018-07-25T17:34:06.989Z,54.10
2018-07-25T17:36:35.481Z,54.36
2018-07-25T17:39:05.829Z,54.33
2018-07-25T17:41:34.334Z,54.20
2018-07-25T17:44:02.816Z,54.22
2018-07-25T17:46:31.296Z,54.42
2018-07-25T17:48:59.781Z,54.36
2018-07-25T17:51:28.292Z,54.55
2018-07-25T17:53:56.768Z,54.29
2018-07-25T17:56:25.697Z,54.26
2018-07-25T17:58:54.208Z,54.38
2018-07-25T18:01:22.711Z,54.33
2018-07-25T18:03:51.428Z,54.27
2018-07-25T18:06:19.916Z,54.33
2018-07-25T18:08:48.405Z,54.21
2018-07-25T18:11:16.921Z,54.52
2018-07-25T18:13:50.756Z,54.23
2018-07-25T18:16:19.272Z,54.59
2018-07-25T18:18:47.761Z,54.32
2018-07-25T18:21:16.265Z,54.47
2018-07-25T18:23:44.820Z,54.73
2018-07-25T18:26:13.329Z,54.89
2018-07-25T18:28:41.820Z,54.89
2018-07-25T18:31:10.345Z,54.80
2018-07-25T18:33:38.835Z,55.04
2018-07-25T18:36:07.333Z,55.06
2018-07-25T18:38:35.845Z,54.95
2018-07-25T18:41:04.324Z,55.26
2018-07-25T18:43:32.796Z,55.06
2018-07-25T18:46:01.302Z,55.30
2018-07-25T18:48:29.801Z,55.71
2018-07-25T18:50:58.304Z,55.75
2018-07-25T18:53:26.792Z,55.66
2018-07-25T18:55:55.279Z,55.45
2018-07-25T18:58:23.763Z,55.68
2018-07-25T19:00:52.248Z,55.50
2018-07-25T19:03:20.765Z,55.59
2018-07-25T19:05:49.258Z,55.62
2018-07-25T19:08:17.764Z,55.71
2018-07-25T19:10:46.242Z,55.84
2018-07-25T19:13:20.044Z,55.49
2018-07-25T19:15:48.533Z,55.73
2018-07-25T19:18:17.025Z,55.72
2018-07-25T19:20:45.493Z,55.87
2018-07-25T19:23:14.009Z,55.84
2018-07-25T19:25:42.481Z,55.93
2018-07-25T19:28:10.939Z,56.11
2018-07-25T19:30:39.409Z,56.08
2018-07-25T19:33:07.905Z,56.17
2018-07-25T19:35:36.386Z,56.30
2018-07-25T19:38:04.869Z,56.03
2018-07-25T19:40:33.330Z,56.18
2018-07-25T19:43:01.805Z,56.35
2018-07-25T19:45:30.276Z,56.10
2018-07-25T19:47:58.813Z,56.43
2018-07-25T19:50:27.592Z,56.22
2018-07-25T19:52:56.128Z,56.43
2018-07-25T19:55:24.705Z,56.35
2018-07-25T19:57:53.225Z,56.33
2018-07-25T20:00:21.961Z,56.52
2018-07-25T20:02:51.065Z,56.62
2018-07-25T20:05:19.627Z,56.68
2018-07-25T20:07:48.278Z,56.49
2018-07-25T20:10:16.873Z,56.45
2018-07-25T20:12:45.513Z,56.83
2018-07-25T20:15:19.370Z,56.77
2018-07-25T20:17:48.105Z,57.07
2018-07-25T20:20:16.732Z,56.91
2018-07-25T20:22:45.248Z,56.80
2018-07-25T20:25:13.906Z,56.86
2018-07-25T20:27:42.471Z,56.95
2018-07-25T20:30:11.337Z,56.87
2018-07-25T20:32:39.954Z,57.15
2018-07-25T20:35:08.584Z,57.07
2018-07-25T20:37:37.216Z,57.22
2018-07-25T20:40:06.399Z,57.16
2018-07-25T20:42:35.906Z,57.23
2018-07-25T20:45:04.993Z,57.37
2018-07-25T20:47:33.748Z,57.27
2018-07-25T20:50:02.301Z,57.07
2018-07-25T20:52:31.118Z,57.21
2018-07-25T20:54:59.845Z,57.48
2018-07-25T20:57:28.696Z,57.25
2018-07-25T20:59:58.300Z,60.34
2018-07-25T21:02:26.946Z,63.38
2018-07-25T21:04:55.753Z,65.18
2018-07-25T21:07:24.433Z,66.02
2018-07-25T21:09:53.031Z,66.95
2018-07-25T21:12:21.627Z,66.91
2018-07-25T21:14:50.208Z,66.54
2018-07-25T21:17:18.742Z,66.27
2018-07-25T21:19:47.504Z,66.26
2018-07-25T21:22:16.171Z,66.12
2018-07-25T21:24:44.916Z,65.76
2018-07-25T21:27:13.453Z,65.49
2018-07-25T21:29:41.985Z,65.59
2018-07-25T21:32:10.460Z,65.30
2018-07-25T21:34:38.949Z,65.23
2018-07-25T21:37:07.564Z,65.19
2018-07-25T21:39:36.135Z,64.78
2018-07-25T21:42:04.702Z,64.71
2018-07-25T21:44:33.253Z,64.62
2018-07-25T21:47:01.740Z,64.54
2018-07-25T21:49:30.309Z,64.54
2018-07-25T21:51:58.868Z,64.77
2018-07-25T21:54:27.512Z,64.28
2018-07-25T21:56:56.028Z,64.22
2018-07-25T21:59:24.672Z,64.54
2018-07-25T22:01:53.215Z,63.97
2018-07-25T22:04:21.740Z,63.95
2018-07-25T22:06:50.288Z,64.21
2018-07-25T22:09:18.844Z,64.04
2018-07-25T22:11:47.413Z,63.80
2018-07-25T22:14:15.900Z,63.89
2018-07-25T22:16:44.564Z,63.73
2018-07-25T22:19:13.167Z,63.90
2018-07-25T22:21:41.779Z,63.80
2018-07-25T22:24:10.269Z,63.80
2018-07-25T22:26:38.812Z,63.93
2018-07-25T22:29:07.374Z,63.84
2018-07-25T22:31:35.947Z,63.89
2018-07-25T22:34:04.476Z,63.97
2018-07-25T22:36:33.132Z,63.65
2018-07-25T22:39:01.651Z,64.10
2018-07-25T22:41:30.269Z,64.17
2018-07-25T22:43:58.748Z,64.13
2018-07-25T22:46:27.311Z,64.21
2018-07-25T22:48:55.935Z,64.23
2018-07-25T22:51:24.501Z,64.30
2018-07-25T22:53:53.061Z,64.42
2018-07-25T22:56:21.590Z,64.42
2018-07-25T22:58:50.187Z,64.24
2018-07-25T23:01:18.773Z,64.26
2018-07-25T23:03:47.276Z,64.25
2018-07-25T23:06:15.767Z,64.44
2018-07-25T23:08:44.305Z,64.62
2018-07-25T23:11:12.793Z,64.61
2018-07-25T23:13:45.527Z,64.47
2018-07-25T23:16:15.047Z,64.82
2018-07-25T23:18:43.571Z,64.77
2018-07-25T23:21:12.172Z,64.99
2018-07-25T23:23:40.682Z,65.03
2018-07-25T23:26:09.222Z,65.08
2018-07-25T23:28:37.768Z,64.89
2018-07-25T23:31:06.340Z,65.01
2018-07-25T23:33:34.939Z,64.98
2018-07-25T23:36:03.465Z,65.15
2018-07-25T23:38:31.999Z,65.38
2018-07-25T23:41:00.569Z,65.35
2018-07-25T23:43:29.148Z,65.39
2018-07-25T23:45:57.695Z,65.52
2018-07-25T23:48:26.192Z,65.56
2018-07-25T23:50:54.743Z,65.76
2018-07-25T23:53:23.497Z,65.58
2018-07-25T23:55:52.009Z,65.76
2018-07-25T23:58:20.500Z,65.71
